createdAt,value
2023-02-14T00:01:21.493Z,26.48
2023-02-14T00:03:52.882Z,28.23
2023-02-14T00:06:26.208Z,25.48
2023-02-14T00:08:59.904Z,25.10
2023-02-14T00:11:32.378Z,25.85
2023-02-14T00:14:21.711Z,24.58
2023-02-14T00:16:52.250Z,22.58
2023-02-14T00:19:25.890Z,22.95
2023-02-14T00:21:57.503Z,20.50
2023-02-14T00:24:28.501Z,22.35
2023-02-14T00:26:59.405Z,21.67
2023-02-14T00:29:32.472Z,21.05
2023-02-14T00:32:05.092Z,21.40
2023-02-14T00:34:37.499Z,21.75
2023-02-14T00:37:08.485Z,18.92
2023-02-14T00:39:39.437Z,19.85
2023-02-14T00:42:10.433Z,18.65
2023-02-14T00:44:41.621Z,20.30
2023-02-14T00:47:12.700Z,20.60
2023-02-14T00:49:43.484Z,19.58
2023-02-14T00:52:14.337Z,20.98
2023-02-14T00:54:44.718Z,21.40
2023-02-14T00:57:17.359Z,22.38
2023-02-14T00:59:48.244Z,23.63
2023-02-14T01:02:19.999Z,22.10
2023-02-14T01:04:51.238Z,22.95
2023-02-14T01:07:23.962Z,23.15
2023-02-14T01:09:58.441Z,20.80
2023-02-14T01:12:29.436Z,21.02
2023-02-14T01:15:00.519Z,19.85
2023-02-14T01:17:31.261Z,23.45
2023-02-14T01:20:02.457Z,18.98
2023-02-14T01:22:38.116Z,17.02
2023-02-14T01:25:08.876Z,19.50
2023-02-14T01:27:39.252Z,22.30
2023-02-14T01:30:11.752Z,22.25
2023-02-14T01:32:43.337Z,19.40
2023-02-14T01:35:14.828Z,23.80
2023-02-14T01:37:45.191Z,15.02
2023-02-14T01:40:19.460Z,14.32
2023-02-14T01:42:50.358Z,13.75
2023-02-14T01:45:24.117Z,14.90
2023-02-14T01:47:57.806Z,16.92
2023-02-14T01:50:33.547Z,18.73
2023-02-14T01:53:13.950Z,14.02
2023-02-14T01:55:48.085Z,14.52
2023-02-14T01:58:27.061Z,15.23
2023-02-14T02:01:01.191Z,15.98
2023-02-14T02:03:36.946Z,17.45
2023-02-14T02:06:19.580Z,21.42
2023-02-14T02:09:12.724Z,18.80
2023-02-14T02:11:45.126Z,18.67
2023-02-14T02:14:22.696Z,18.38
2023-02-14T02:17:34.231Z,16.30
2023-02-14T02:20:23.380Z,15.40
2023-02-14T02:23:23.883Z,21.30
2023-02-14T02:26:19.264Z,16.92
2023-02-14T02:29:08.368Z,16.67
2023-02-14T02:31:56.697Z,17.63
2023-02-14T02:34:55.120Z,19.58
2023-02-14T02:37:53.684Z,21.17
2023-02-14T02:41:03.638Z,20.20
2023-02-14T02:44:09.226Z,19.30
2023-02-14T02:46:51.067Z,19.67
2023-02-14T02:50:02.751Z,20.92
2023-02-14T02:53:09.066Z,28.17
2023-02-14T02:56:08.346Z,19.42
2023-02-14T02:59:01.102Z,19.98
2023-02-14T03:01:39.190Z,19.92
2023-02-14T03:04:31.265Z,19.38
2023-02-14T03:07:02.475Z,20.38
2023-02-14T03:09:33.973Z,20.75
2023-02-14T03:12:34.766Z,19.05
2023-02-14T03:15:29.683Z,18.23
2023-02-14T03:18:30.418Z,20.08
2023-02-14T03:21:07.629Z,18.60
2023-02-14T03:23:56.342Z,17.75
2023-02-14T03:26:39.147Z,18.15
2023-02-14T03:29:33.519Z,18.90
2023-02-14T03:32:16.615Z,17.30
2023-02-14T03:35:19.307Z,18.33
2023-02-14T03:37:57.077Z,19.25
2023-02-14T03:40:45.170Z,17.75
2023-02-14T03:43:27.622Z,17.42
2023-02-14T03:46:11.533Z,18.08
2023-02-14T03:48:42.714Z,16.85
2023-02-14T03:51:15.477Z,18.50
2023-02-14T03:53:57.748Z,18.48
2023-02-14T03:56:39.061Z,17.00
2023-02-14T03:59:17.834Z,17.83
2023-02-14T04:01:56.764Z,17.88
2023-02-14T04:04:30.232Z,17.52
2023-02-14T04:07:01.671Z,15.20
2023-02-14T04:09:32.156Z,16.77
2023-02-14T04:12:02.964Z,16.38
2023-02-14T04:14:35.402Z,16.95
2023-02-14T04:17:24.720Z,17.42
2023-02-14T04:19:56.000Z,17.95
2023-02-14T04:22:27.543Z,17.30
2023-02-14T04:24:58.546Z,15.20
2023-02-14T04:27:32.225Z,15.60
2023-02-14T04:30:03.005Z,15.60
2023-02-14T04:32:33.736Z,15.55
2023-02-14T04:35:04.503Z,15.40
2023-02-14T04:37:35.975Z,15.27
2023-02-14T04:40:08.050Z,14.75
2023-02-14T04:42:39.639Z,14.48
2023-02-14T04:45:10.896Z,13.13
2023-02-14T04:47:42.031Z,13.95
2023-02-14T04:50:13.656Z,14.32
2023-02-14T04:52:44.084Z,15.10
2023-02-14T04:55:23.232Z,15.00
2023-02-14T04:57:53.728Z,15.75
2023-02-14T05:00:25.200Z,15.18
2023-02-14T05:02:56.210Z,15.00
2023-02-14T05:05:27.158Z,12.40
2023-02-14T05:07:58.728Z,11.93
2023-02-14T05:10:30.183Z,11.57
2023-02-14T05:13:02.994Z,13.63
2023-02-14T05:15:33.934Z,12.90
2023-02-14T05:18:06.673Z,13.68
2023-02-14T05:20:38.006Z,13.30
2023-02-14T05:23:14.587Z,12.27
2023-02-14T05:25:45.311Z,12.23
2023-02-14T05:28:16.579Z,11.80
2023-02-14T05:30:47.182Z,14.68
2023-02-14T05:33:17.924Z,16.52
2023-02-14T05:35:48.643Z,16.25
2023-02-14T05:38:19.958Z,14.93
2023-02-14T05:40:51.288Z,16.63
2023-02-14T05:43:22.815Z,15.30
2023-02-14T05:45:55.178Z,13.50
2023-02-14T05:48:26.336Z,13.95
2023-02-14T05:50:57.078Z,19.42
2023-02-14T05:53:28.691Z,13.30
2023-02-14T05:56:08.863Z,16.70
2023-02-14T05:58:40.130Z,15.52
2023-02-14T06:01:11.097Z,16.70
2023-02-14T06:03:41.965Z,15.02
2023-02-14T06:06:12.989Z,13.60
2023-02-14T06:08:43.970Z,14.85
2023-02-14T06:11:18.015Z,15.68
2023-02-14T06:13:51.876Z,11.75
2023-02-14T06:16:22.487Z,13.85
2023-02-14T06:18:53.249Z,12.57
2023-02-14T06:21:23.796Z,12.15
2023-02-14T06:23:54.476Z,11.80
2023-02-14T06:26:28.806Z,11.68
2023-02-14T06:29:00.542Z,15.23
2023-02-14T06:31:32.421Z,14.80
2023-02-14T06:34:03.329Z,14.73
2023-02-14T06:36:33.731Z,14.77
2023-02-14T06:39:04.804Z,13.60
2023-02-14T06:41:35.708Z,12.50
2023-02-14T06:44:06.545Z,12.48
2023-02-14T06:46:37.496Z,12.25
2023-02-14T06:49:10.697Z,11.02
2023-02-14T06:51:41.149Z,9.32
2023-02-14T06:54:12.578Z,8.15
2023-02-14T06:56:53.312Z,8.65
2023-02-14T06:59:24.571Z,8.52
2023-02-14T07:01:55.836Z,8.75
2023-02-14T07:04:27.124Z,8.25
2023-02-14T07:06:58.228Z,7.97
2023-02-14T07:09:28.867Z,8.40
2023-02-14T07:11:59.579Z,8.57
2023-02-14T07:14:30.605Z,10.55
2023-02-14T07:17:02.191Z,9.63
2023-02-14T07:19:33.175Z,9.55
2023-02-14T07:22:04.706Z,8.23
2023-02-14T07:24:35.262Z,9.82
2023-02-14T07:27:06.019Z,9.15
2023-02-14T07:29:37.016Z,10.63
2023-02-14T07:32:08.014Z,8.40
2023-02-14T07:34:38.717Z,8.25
2023-02-14T07:37:11.446Z,9.32
2023-02-14T07:39:42.321Z,8.48
2023-02-14T07:42:13.550Z,9.60
2023-02-14T07:44:46.191Z,7.15
2023-02-14T07:47:17.306Z,8.48
2023-02-14T07:49:47.718Z,8.35
2023-02-14T07:52:19.189Z,7.97
2023-02-14T07:54:50.115Z,8.50
2023-02-14T07:57:21.071Z,7.97
2023-02-14T07:59:51.981Z,7.95
2023-02-14T08:02:22.557Z,9.20
2023-02-14T08:04:54.314Z,8.93
2023-02-14T08:07:25.106Z,8.85
2023-02-14T08:09:55.743Z,9.43
2023-02-14T08:12:44.675Z,8.45
2023-02-14T08:15:41.870Z,9.20
2023-02-14T08:18:13.014Z,9.20
2023-02-14T08:20:44.905Z,9.25
2023-02-14T08:23:16.012Z,9.55
2023-02-14T08:25:48.192Z,8.27
2023-02-14T08:28:20.752Z,7.53
2023-02-14T08:30:51.530Z,9.18
2023-02-14T08:33:23.024Z,8.32
2023-02-14T08:35:56.067Z,7.72
2023-02-14T08:38:26.691Z,8.50
2023-02-14T08:41:08.312Z,7.95
2023-02-14T08:43:40.551Z,8.35
2023-02-14T08:46:13.218Z,8.65
2023-02-14T08:48:44.539Z,8.35
2023-02-14T08:51:17.859Z,8.00
2023-02-14T08:53:51.778Z,7.57
2023-02-14T08:56:23.857Z,8.05
2023-02-14T08:58:55.808Z,8.00
2023-02-14T09:01:27.596Z,5.20
2023-02-14T09:03:59.072Z,5.13
2023-02-14T09:06:29.670Z,3.60
2023-02-14T09:09:02.477Z,4.68
2023-02-14T09:11:33.935Z,5.65
2023-02-14T09:14:07.510Z,5.25
2023-02-14T09:16:40.776Z,6.13
2023-02-14T09:19:11.648Z,6.22
2023-02-14T09:21:42.825Z,6.30
2023-02-14T09:24:14.096Z,3.95
2023-02-14T09:26:45.319Z,4.30
2023-02-14T09:29:17.112Z,4.00
2023-02-14T09:31:47.851Z,3.97
2023-02-14T09:34:19.006Z,6.30
2023-02-14T09:37:08.151Z,5.63
2023-02-14T09:39:39.828Z,4.82
2023-02-14T09:42:13.745Z,6.05
2023-02-14T09:44:49.369Z,4.20
2023-02-14T09:47:53.114Z,5.22
2023-02-14T09:50:55.593Z,4.25
2023-02-14T09:53:35.988Z,3.55
2023-02-14T09:56:15.774Z,4.28
2023-02-14T09:58:55.516Z,3.83
2023-02-14T10:01:51.118Z,3.55
2023-02-14T10:04:38.202Z,4.50
2023-02-14T10:07:24.698Z,4.15
2023-02-14T10:10:05.443Z,4.97
2023-02-14T10:12:35.958Z,4.72
2023-02-14T10:15:14.084Z,5.85
2023-02-14T10:17:59.025Z,5.70
2023-02-14T10:20:37.418Z,5.65
2023-02-14T10:23:32.086Z,4.78
2023-02-14T10:26:09.229Z,5.25
2023-02-14T10:28:50.163Z,4.93
2023-02-14T10:32:02.947Z,4.60
2023-02-14T10:34:46.783Z,4.57
2023-02-14T10:37:22.742Z,4.78
2023-02-14T10:40:23.130Z,5.00
2023-02-14T10:43:09.044Z,4.80
2023-02-14T10:46:00.821Z,4.65
2023-02-14T10:48:45.564Z,4.65
2023-02-14T10:51:41.052Z,9.20
2023-02-14T10:54:30.263Z,5.50
2023-02-14T10:57:17.667Z,4.45
2023-02-14T11:00:11.962Z,4.68
2023-02-14T11:02:45.965Z,6.45
2023-02-14T11:05:30.344Z,6.07
2023-02-14T11:08:29.188Z,5.80
2023-02-14T11:11:12.504Z,5.13
2023-02-14T11:13:46.322Z,4.63
2023-02-14T11:16:31.760Z,4.47
2023-02-14T11:19:21.657Z,4.88
2023-02-14T11:21:54.078Z,4.85
2023-02-14T11:24:40.794Z,4.55
2023-02-14T11:27:12.206Z,3.97
2023-02-14T11:29:42.853Z,4.25
2023-02-14T11:32:21.245Z,4.20
2023-02-14T11:35:05.016Z,5.30
2023-02-14T11:37:48.507Z,4.13
2023-02-14T11:40:46.816Z,3.67
2023-02-14T11:43:17.466Z,4.68
2023-02-14T11:45:50.357Z,5.22
2023-02-14T11:48:36.547Z,4.35
2023-02-14T11:51:11.232Z,4.38
2023-02-14T11:53:57.210Z,4.93
2023-02-14T11:57:05.720Z,5.25
2023-02-14T11:59:40.422Z,4.43
2023-02-14T12:02:40.028Z,5.28
2023-02-14T12:05:31.625Z,4.72
2023-02-14T12:08:05.266Z,4.40
2023-02-14T12:10:40.522Z,4.60
2023-02-14T12:13:20.245Z,4.85
2023-02-14T12:15:55.169Z,4.22
2023-02-14T12:18:47.131Z,4.45
2023-02-14T12:21:43.689Z,4.82
2023-02-14T12:24:34.354Z,5.38
2023-02-14T12:27:23.529Z,4.53
2023-02-14T12:30:16.245Z,4.95
2023-02-14T12:32:52.703Z,4.57
2023-02-14T12:35:43.415Z,4.80
2023-02-14T12:38:14.938Z,4.82
2023-02-14T12:41:05.531Z,4.75
2023-02-14T12:43:51.615Z,5.50
2023-02-14T12:46:37.471Z,5.68
2023-02-14T12:49:29.897Z,6.45
2023-02-14T12:52:19.126Z,4.85
2023-02-14T12:55:05.010Z,4.70
2023-02-14T12:57:42.148Z,4.57
2023-02-14T13:00:16.297Z,4.75
2023-02-14T13:03:00.254Z,4.40
2023-02-14T13:05:52.411Z,4.97
2023-02-14T13:08:31.105Z,5.22
2023-02-14T13:11:28.012Z,4.53
2023-02-14T13:14:10.939Z,5.20
2023-02-14T13:17:13.795Z,4.95
2023-02-14T13:20:05.238Z,4.78
2023-02-14T13:22:37.881Z,5.40
2023-02-14T13:25:22.836Z,5.95
2023-02-14T13:27:54.440Z,5.03
2023-02-14T13:30:37.857Z,7.80
2023-02-14T13:33:35.158Z,6.47
2023-02-14T13:36:09.493Z,6.55
2023-02-14T13:38:49.185Z,5.85
2023-02-14T13:41:20.659Z,5.72
2023-02-14T13:44:03.456Z,5.80
2023-02-14T13:46:33.780Z,4.65
2023-02-14T13:49:22.993Z,5.05
2023-02-14T13:51:56.943Z,5.13
2023-02-14T13:54:31.133Z,4.30
2023-02-14T13:57:04.350Z,3.45
2023-02-14T13:59:36.685Z,3.25
2023-02-14T14:02:30.313Z,3.22
2023-02-14T14:05:01.643Z,3.47
2023-02-14T14:07:32.712Z,3.55
2023-02-14T14:10:05.208Z,3.83
2023-02-14T14:12:36.130Z,3.05
2023-02-14T14:15:07.161Z,3.90
2023-02-14T14:17:40.207Z,3.85
2023-02-14T14:20:22.010Z,4.13
2023-02-14T14:22:58.347Z,3.55
2023-02-14T14:25:43.108Z,3.83
2023-02-14T14:28:24.022Z,3.97
2023-02-14T14:30:57.353Z,3.80
2023-02-14T14:33:31.430Z,5.10
2023-02-14T14:36:08.196Z,5.18
2023-02-14T14:38:53.985Z,4.50
2023-02-14T14:41:33.465Z,5.32
2023-02-14T14:44:06.444Z,5.10
2023-02-14T14:46:36.808Z,4.72
2023-02-14T14:49:11.394Z,4.43
2023-02-14T14:51:42.043Z,5.15
2023-02-14T14:54:22.298Z,6.40
2023-02-14T14:56:59.262Z,6.45
2023-02-14T14:59:38.236Z,7.60
2023-02-14T15:02:25.355Z,8.27
2023-02-14T15:04:56.266Z,8.70
2023-02-14T15:07:31.551Z,7.75
2023-02-14T15:10:02.967Z,8.32
2023-02-14T15:12:51.514Z,8.48
2023-02-14T15:15:22.076Z,9.48
2023-02-14T15:18:08.568Z,9.23
2023-02-14T15:20:40.494Z,8.70
2023-02-14T15:23:23.412Z,8.45
2023-02-14T15:25:54.090Z,7.55
2023-02-14T15:28:33.368Z,8.68
2023-02-14T15:31:06.801Z,8.75
2023-02-14T15:33:38.110Z,8.60
2023-02-14T15:36:20.485Z,8.95
2023-02-14T15:38:55.228Z,9.32
2023-02-14T15:41:27.900Z,9.15
2023-02-14T15:43:59.279Z,8.93
2023-02-14T15:46:36.692Z,9.25
2023-02-14T15:49:10.613Z,11.25
2023-02-14T15:51:42.637Z,9.88
2023-02-14T15:54:47.385Z,10.40
2023-02-14T15:57:26.445Z,9.98
2023-02-14T15:59:57.662Z,10.45
2023-02-14T16:02:30.155Z,10.10
2023-02-14T16:05:22.866Z,9.52
2023-02-14T16:08:04.452Z,10.82
2023-02-14T16:10:37.700Z,10.65
2023-02-14T16:13:20.457Z,11.38
2023-02-14T16:16:06.098Z,11.65
2023-02-14T16:18:48.648Z,11.40
2023-02-14T16:21:25.343Z,11.40
2023-02-14T16:24:12.814Z,11.10
2023-02-14T16:26:45.239Z,11.52
2023-02-14T16:29:23.618Z,12.40
2023-02-14T16:32:15.163Z,11.60
2023-02-14T16:34:48.318Z,12.05
2023-02-14T16:37:27.637Z,11.52
2023-02-14T16:40:01.493Z,12.70
2023-02-14T16:42:33.688Z,12.73
2023-02-14T16:45:04.186Z,12.48
2023-02-14T16:47:37.533Z,10.25
2023-02-14T16:50:11.048Z,9.93
2023-02-14T16:52:42.903Z,9.88
2023-02-14T16:55:18.336Z,8.73
2023-02-14T16:57:51.005Z,9.70
2023-02-14T17:00:22.963Z,9.80
2023-02-14T17:03:04.365Z,10.30
2023-02-14T17:05:36.456Z,9.77
2023-02-14T17:08:09.130Z,8.90
2023-02-14T17:10:41.273Z,8.55
2023-02-14T17:13:12.366Z,9.15
2023-02-14T17:15:44.171Z,8.95
2023-02-14T17:18:17.667Z,8.27
2023-02-14T17:20:57.201Z,9.13
2023-02-14T17:23:32.048Z,8.18
2023-02-14T17:26:03.036Z,8.57
2023-02-14T17:28:34.184Z,8.27
2023-02-14T17:31:08.155Z,7.63
2023-02-14T17:33:40.040Z,7.70
2023-02-14T17:36:13.658Z,8.10
2023-02-14T17:38:44.887Z,8.15
2023-02-14T17:41:22.758Z,6.88
2023-02-14T17:44:01.252Z,7.10
2023-02-14T17:46:33.071Z,6.35
2023-02-14T17:49:07.745Z,6.22
2023-02-14T17:51:38.611Z,6.20
2023-02-14T17:54:09.257Z,6.75
2023-02-14T17:56:40.395Z,6.88
2023-02-14T17:59:11.500Z,6.20
2023-02-14T18:01:42.499Z,7.40
2023-02-14T18:04:12.954Z,6.70
2023-02-14T18:06:44.119Z,6.53
2023-02-14T18:09:15.161Z,6.85
2023-02-14T18:11:46.905Z,6.60
2023-02-14T18:14:17.912Z,7.00
2023-02-14T18:16:49.053Z,6.32
2023-02-14T18:19:20.130Z,6.85
2023-02-14T18:21:50.647Z,6.75
2023-02-14T18:24:21.600Z,6.78
2023-02-14T18:26:54.877Z,6.40
2023-02-14T18:29:25.522Z,7.28
2023-02-14T18:31:56.202Z,6.78
2023-02-14T18:34:30.073Z,6.25
2023-02-14T18:37:02.795Z,6.68
2023-02-14T18:39:34.516Z,7.03
2023-02-14T18:42:06.317Z,5.95
2023-02-14T18:44:37.456Z,6.97
2023-02-14T18:47:09.081Z,6.70
2023-02-14T18:49:39.602Z,6.47
2023-02-14T18:52:10.137Z,6.30
2023-02-14T18:54:40.618Z,6.55
2023-02-14T18:57:11.776Z,6.75
2023-02-14T18:59:42.219Z,6.85
2023-02-14T19:02:13.360Z,7.15
2023-02-14T19:04:44.345Z,6.45
2023-02-14T19:07:17.171Z,10.38
2023-02-14T19:09:49.982Z,8.13
2023-02-14T19:12:20.660Z,8.52
2023-02-14T19:14:54.552Z,8.35
2023-02-14T19:17:25.180Z,7.80
2023-02-14T19:20:09.414Z,7.45
2023-02-14T19:22:43.420Z,7.43
2023-02-14T19:25:13.680Z,7.18
2023-02-14T19:27:44.417Z,8.10
2023-02-14T19:30:16.036Z,7.55
2023-02-14T19:32:46.815Z,7.72
2023-02-14T19:35:17.624Z,7.30
2023-02-14T19:37:54.421Z,7.45
2023-02-14T19:40:27.850Z,8.20
2023-02-14T19:42:58.486Z,7.43
2023-02-14T19:45:33.298Z,7.05
2023-02-14T19:48:04.561Z,8.02
2023-02-14T19:50:34.985Z,7.07
2023-02-14T19:53:05.773Z,7.18
2023-02-14T19:55:36.504Z,7.40
2023-02-14T19:58:07.522Z,6.97
2023-02-14T20:00:39.053Z,7.38
2023-02-14T20:03:10.915Z,6.63
2023-02-14T20:05:41.800Z,6.97
2023-02-14T20:08:12.469Z,6.05
2023-02-14T20:10:42.894Z,6.68
2023-02-14T20:13:13.807Z,6.13
2023-02-14T20:15:47.610Z,6.35
2023-02-14T20:18:18.697Z,5.20
2023-02-14T20:21:04.577Z,5.70
2023-02-14T20:23:38.543Z,5.63
2023-02-14T20:26:16.342Z,5.18
2023-02-14T20:28:49.761Z,5.43
2023-02-14T20:31:20.835Z,6.25
2023-02-14T20:33:54.486Z,7.30
2023-02-14T20:36:28.746Z,7.28
2023-02-14T20:39:01.772Z,6.63
2023-02-14T20:41:35.392Z,7.05
2023-02-14T20:44:14.194Z,6.85
2023-02-14T20:46:49.521Z,6.53
2023-02-14T20:49:20.901Z,6.43
2023-02-14T20:51:53.216Z,6.43
2023-02-14T20:54:28.316Z,5.78
2023-02-14T20:56:59.226Z,6.07
2023-02-14T20:59:30.380Z,5.95
2023-02-14T21:02:01.346Z,6.53
2023-02-14T21:04:32.010Z,6.78
2023-02-14T21:07:08.616Z,6.38
2023-02-14T21:09:39.888Z,6.38
2023-02-14T21:12:18.616Z,6.15
2023-02-14T21:14:49.766Z,6.38
2023-02-14T21:17:20.795Z,7.43
2023-02-14T21:19:54.000Z,6.45
2023-02-14T21:22:29.727Z,6.57
2023-02-14T21:25:00.104Z,7.20
2023-02-14T21:27:33.819Z,6.95
2023-02-14T21:30:08.246Z,7.85
2023-02-14T21:32:39.025Z,7.50
2023-02-14T21:35:10.130Z,7.47
2023-02-14T21:37:40.546Z,7.65
2023-02-14T21:40:11.662Z,7.32
2023-02-14T21:42:45.480Z,8.15
2023-02-14T21:45:34.195Z,8.13
2023-02-14T21:48:23.316Z,8.45
2023-02-14T21:50:54.651Z,7.90
2023-02-14T21:53:25.825Z,8.40
2023-02-14T21:55:56.170Z,9.50
2023-02-14T21:58:26.907Z,10.18
2023-02-14T22:00:57.477Z,9.57
2023-02-14T22:03:30.365Z,10.73
2023-02-14T22:06:08.248Z,11.10
2023-02-14T22:08:38.809Z,11.98
2023-02-14T22:11:12.363Z,12.68
2023-02-14T22:13:43.637Z,13.10
2023-02-14T22:16:17.132Z,12.45
2023-02-14T22:18:51.189Z,12.18
2023-02-14T22:21:27.488Z,12.68
2023-02-14T22:23:58.194Z,12.40
2023-02-14T22:26:31.393Z,11.38
2023-02-14T22:29:03.784Z,11.45
2023-02-14T22:31:44.592Z,12.02
2023-02-14T22:34:21.600Z,11.52
2023-02-14T22:36:53.453Z,13.70
2023-02-14T22:39:24.363Z,12.63
2023-02-14T22:41:55.222Z,11.95
2023-02-14T22:44:26.127Z,12.25
2023-02-14T22:46:56.904Z,12.05
2023-02-14T22:49:27.625Z,12.85
2023-02-14T22:51:58.031Z,12.55
2023-02-14T22:54:29.046Z,12.93
2023-02-14T22:57:00.915Z,14.98
2023-02-14T22:59:33.182Z,12.50
2023-02-14T23:02:04.460Z,12.30
2023-02-14T23:04:35.463Z,12.45
2023-02-14T23:07:06.958Z,11.70
2023-02-14T23:09:40.305Z,13.70
2023-02-14T23:12:30.387Z,14.55
2023-02-14T23:15:18.935Z,15.63
2023-02-14T23:18:07.842Z,14.73
2023-02-14T23:20:57.165Z,16.80
2023-02-14T23:23:34.485Z,16.95
2023-02-14T23:26:05.387Z,16.80
2023-02-14T23:28:45.565Z,17.73
2023-02-14T23:31:16.279Z,17.98
2023-02-14T23:33:47.755Z,21.73
2023-02-14T23:36:19.058Z,17.77
2023-02-14T23:38:49.672Z,18.42
2023-02-14T23:41:38.272Z,19.85
2023-02-14T23:44:09.396Z,20.65
2023-02-14T23:46:39.844Z,21.48
2023-02-14T23:49:10.767Z,20.23
2023-02-14T23:51:41.798Z,21.73
2023-02-14T23:54:13.021Z,23.70
2023-02-14T23:56:44.393Z,23.00
2023-02-14T23:59:23.661Z,24.42
